Time;durP1;ratioP1;P1;durP2;ratioP2;P2;SDS_P1;SDS_P2;PMS_P1;PMS_P2;Temp;Humidity;BMP_temperature;BMP_pressure;BME280_temperature;BME280_humidity;BME280_pressure;Samples;Min_cycle;Max_cycle;Signal;HPM_P1;HPM_P2
2023/09/27 00:00:01;;;;;;;3.13;2.85;;;14.40;99.90;;;;;;5027370;28;20020;-69
2023/09/27 00:02:26;;;;;;;3.85;3.47;;;14.30;99.90;;;;;;5027468;28;20032;-69
2023/09/27 00:04:52;;;;;;;4.53;2.80;;;14.30;99.90;;;;;;5027864;28;20466;-69
2023/09/27 00:07:17;;;;;;;4.40;3.20;;;14.20;99.90;;;;;;5029611;28;20029;-68
2023/09/27 00:09:43;;;;;;;4.55;3.00;;;14.10;99.90;;;;;;5028792;28;20037;-69
2023/09/27 00:12:09;;;;;;;10.48;3.70;;;14.10;99.90;;;;;;5030119;28;20465;-68
2023/09/27 00:14:34;;;;;;;4.30;3.30;;;14.10;99.90;;;;;;5021738;28;20029;-69
2023/09/27 00:17:00;;;;;;;4.03;3.33;;;14.10;99.90;;;;;;5026492;28;20034;-69
2023/09/27 00:19:26;;;;;;;4.32;3.13;;;14.10;99.90;;;;;;5025302;28;20041;-68
2023/09/27 00:21:52;;;;;;;5.85;3.33;;;14.20;99.90;;;;;;5036034;28;20036;-69
2023/09/27 00:24:17;;;;;;;4.45;3.25;;;14.20;99.90;;;;;;5026454;28;20045;-68
2023/09/27 00:26:43;;;;;;;7.00;3.58;;;14.20;99.90;;;;;;5031843;28;20508;-68
2023/09/27 00:29:09;;;;;;;6.68;3.70;;;14.20;99.90;;;;;;5025761;28;20037;-69
2023/09/27 00:31:34;;;;;;;3.40;2.53;;;14.20;99.90;;;;;;5027436;28;20064;-69
2023/09/27 00:34:00;;;;;;;3.47;2.75;;;14.30;99.90;;;;;;5029356;28;20565;-68
2023/09/27 00:36:26;;;;;;;5.00;2.78;;;14.20;99.90;;;;;;5030010;28;20048;-69
2023/09/27 00:38:51;;;;;;;4.28;2.38;;;14.20;99.90;;;;;;5029672;28;20041;-68
2023/09/27 00:41:17;;;;;;;3.47;2.97;;;14.10;99.90;;;;;;5030038;28;20040;-68
2023/09/27 00:43:42;;;;;;;2.10;1.90;;;14.00;99.90;;;;;;5029734;28;20033;-72
2023/09/27 00:46:10;;;;;;;2.67;2.47;;;14.00;99.90;;;;;;5024190;28;20041;-72
2023/09/27 00:48:37;;;;;;;5.35;2.95;;;14.00;99.90;;;;;;5027562;28;20493;-73
2023/09/27 00:51:04;;;;;;;6.32;3.28;;;14.00;99.90;;;;;;5028851;28;20078;-70
2023/09/27 00:53:34;;;;;;;5.57;3.00;;;14.00;99.90;;;;;;5031772;28;20071;-70
2023/09/27 00:56:01;;;;;;;5.22;3.70;;;14.00;99.90;;;;;;5028012;28;20033;-70
2023/09/27 00:58:30;;;;;;;5.18;3.53;;;14.00;99.90;;;;;;5028335;28;20052;-70
2023/09/27 01:00:58;;;;;;;4.80;4.05;;;14.00;99.90;;;;;;5024993;28;20104;-70
2023/09/27 01:03:24;;;;;;;3.53;2.75;;;14.00;99.90;;;;;;5024340;28;20029;-70
2023/09/27 01:05:50;;;;;;;6.45;3.13;;;14.00;99.90;;;;;;5029464;28;20414;-69
2023/09/27 01:08:15;;;;;;;5.72;2.60;;;13.90;99.90;;;;;;5030378;28;20065;-70
2023/09/27 01:10:41;;;;;;;4.60;2.38;;;13.90;99.90;;;;;;5030461;28;20121;-69
2023/09/27 01:13:07;;;;;;;4.55;2.83;;;13.90;99.90;;;;;;5033738;28;20029;-70
2023/09/27 01:15:33;;;;;;;8.80;2.70;;;13.80;99.90;;;;;;5025656;28;20037;-70
2023/09/27 01:18:01;;;;;;;5.85;2.70;;;13.70;99.90;;;;;;5025595;28;20045;-70
2023/09/27 01:20:28;;;;;;;3.47;2.53;;;13.70;99.90;;;;;;5024666;28;20041;-70
2023/09/27 01:23:07;;;;;;;6.72;3.10;;;13.60;99.90;;;;;;5029253;28;20395;-72
2023/09/27 01:25:35;;;;;;;2.75;2.47;;;13.70;99.90;;;;;;5024750;28;20057;-70
2023/09/27 01:28:06;;;;;;;5.25;3.42;;;13.70;99.90;;;;;;5028641;28;20033;-71
2023/09/27 01:30:32;;;;;;;4.40;3.15;;;13.70;99.90;;;;;;5030840;28;20036;-71
2023/09/27 01:33:06;;;;;;;7.10;3.22;;;13.70;99.90;;;;;;5023931;28;20032;-70
2023/09/27 01:35:33;;;;;;;5.15;3.47;;;13.70;99.90;;;;;;5024207;28;20495;-70
2023/09/27 01:37:59;;;;;;;2.70;2.50;;;13.70;99.90;;;;;;5024796;28;20115;-70
2023/09/27 01:40:30;;;;;;;3.58;2.72;;;13.70;99.90;;;;;;5028335;28;20041;-71
2023/09/27 01:43:00;;;;;;;4.43;2.90;;;13.70;99.90;;;;;;5025153;28;20440;-70
2023/09/27 01:45:26;;;;;;;7.90;3.40;;;13.60;99.90;;;;;;5029059;28;20507;-70
2023/09/27 01:47:52;;;;;;;4.35;3.15;;;13.70;99.90;;;;;;5028790;28;20029;-70
2023/09/27 01:50:23;;;;;;;5.03;2.72;;;13.70;99.90;;;;;;5022594;28;20041;-70
2023/09/27 01:52:49;;;;;;;7.78;2.83;;;13.70;99.90;;;;;;5025302;28;20064;-70
2023/09/27 01:55:15;;;;;;;3.28;2.47;;;13.50;99.90;;;;;;5025083;28;20044;-70
2023/09/27 01:57:41;;;;;;;5.03;2.90;;;13.50;99.90;;;;;;5024108;28;21752;-67
2023/09/27 02:00:11;;;;;;;3.60;2.70;;;13.50;99.90;;;;;;5028500;28;20627;-67
2023/09/27 02:02:59;;;;;;;3.92;2.40;;;13.50;99.90;;;;;;5024696;28;20033;-67
2023/09/27 02:05:27;;;;;;;7.60;2.83;;;13.50;99.90;;;;;;5024272;28;20535;-68
2023/09/27 02:07:53;;;;;;;2.92;2.63;;;13.50;99.90;;;;;;5026065;28;20087;-67
2023/09/27 02:10:19;;;;;;;3.00;2.70;;;13.50;99.90;;;;;;5026339;28;20021;-67
2023/09/27 02:12:45;;;;;;;3.00;2.70;;;13.50;99.90;;;;;;5024983;28;20105;-67
2023/09/27 02:15:12;;;;;;;3.03;2.72;;;13.40;99.90;;;;;;5024892;28;20025;-68
2023/09/27 02:17:42;;;;;;;4.43;3.20;;;13.40;99.90;;;;;;5021857;28;20155;-67
2023/09/27 02:20:12;;;;;;;7.53;2.80;;;13.50;99.90;;;;;;5025716;28;20017;-68
2023/09/27 02:22:42;;;;;;;3.78;3.00;;;13.50;99.90;;;;;;5030024;28;20116;-68
2023/09/27 02:25:11;;;;;;;4.93;2.70;;;13.50;99.90;;;;;;5031594;28;20072;-68
2023/09/27 02:27:37;;;;;;;2.35;2.15;;;13.40;99.90;;;;;;5027079;28;20112;-67
2023/09/27 02:30:06;;;;;;;3.75;2.72;;;13.40;99.90;;;;;;5022559;28;20115;-67
2023/09/27 02:32:32;;;;;;;3.60;2.55;;;13.50;99.90;;;;;;5020797;28;20029;-68
2023/09/27 02:34:58;;;;;;;2.80;2.60;;;13.40;99.90;;;;;;5044820;28;20035;-68
2023/09/27 02:37:24;;;;;;;4.95;3.00;;;13.40;99.90;;;;;;5026411;28;20108;-70
2023/09/27 02:39:50;;;;;;;4.20;2.28;;;13.40;99.90;;;;;;5027849;28;20338;-70
2023/09/27 02:42:16;;;;;;;4.53;2.70;;;13.40;99.90;;;;;;5023927;28;20033;-70
2023/09/27 02:44:41;;;;;;;4.35;3.17;;;13.40;99.90;;;;;;5026285;28;20032;-70
2023/09/27 02:47:07;;;;;;;5.53;2.60;;;13.30;99.90;;;;;;5026134;28;20025;-70
2023/09/27 02:49:36;;;;;;;4.68;3.15;;;13.30;99.90;;;;;;5022576;28;20073;-70
2023/09/27 02:52:02;;;;;;;5.07;3.00;;;13.30;99.90;;;;;;5027033;28;20030;-70
2023/09/27 02:54:28;;;;;;;3.50;3.20;;;13.30;99.90;;;;;;5028584;28;20521;-68
2023/09/27 02:56:54;;;;;;;6.63;2.83;;;13.30;99.90;;;;;;5024232;28;20059;-68
2023/09/27 02:59:20;;;;;;;6.93;2.67;;;13.30;99.90;;;;;;5025059;28;20037;-68
2023/09/27 03:01:46;;;;;;;4.68;2.92;;;13.30;99.90;;;;;;5024928;28;20116;-68
2023/09/27 03:04:12;;;;;;;3.97;2.80;;;13.30;99.90;;;;;;5027958;28;20025;-68
2023/09/27 03:06:38;;;;;;;5.68;2.90;;;13.30;99.90;;;;;;5027802;28;20524;-68
2023/09/27 03:09:05;;;;;;;7.03;2.60;;;13.20;99.90;;;;;;5025802;28;20042;-68
2023/09/27 03:11:33;;;;;;;2.97;2.30;;;13.20;99.90;;;;;;5028017;28;20129;-70
2023/09/27 03:13:59;;;;;;;2.65;2.42;;;13.20;99.90;;;;;;5024824;28;20036;-67
2023/09/27 03:16:24;;;;;;;7.28;2.55;;;13.10;99.90;;;;;;5023493;28;20021;-68
2023/09/27 03:18:50;;;;;;;7.68;2.80;;;13.10;99.90;;;;;;5023850;28;20066;-67
2023/09/27 03:21:17;;;;;;;4.18;3.00;;;13.10;99.90;;;;;;5019158;28;20026;-68
2023/09/27 03:23:43;;;;;;;3.88;2.85;;;13.10;99.90;;;;;;5025184;28;20029;-68
2023/09/27 03:26:09;;;;;;;5.10;2.50;;;13.10;99.90;;;;;;5032708;28;20107;-68
2023/09/27 03:28:35;;;;;;;5.30;2.90;;;13.10;99.90;;;;;;5025107;28;20540;-68
2023/09/27 03:31:02;;;;;;;3.33;2.30;;;13.10;99.90;;;;;;5030099;28;20418;-67
2023/09/27 03:33:27;;;;;;;3.50;2.70;;;13.10;99.90;;;;;;5024129;28;20044;-67
2023/09/27 03:35:54;;;;;;;3.40;2.53;;;13.00;99.90;;;;;;5030151;28;20025;-67
2023/09/27 03:38:20;;;;;;;5.22;2.65;;;12.90;99.90;;;;;;5022683;28;20044;-67
2023/09/27 03:40:48;;;;;;;3.80;2.38;;;13.00;99.90;;;;;;5027789;28;20040;-68
2023/09/27 03:43:14;;;;;;;7.95;2.72;;;13.00;99.90;;;;;;5024720;28;20029;-67
2023/09/27 03:45:39;;;;;;;4.40;2.65;;;13.00;99.90;;;;;;5027001;28;20084;-68
2023/09/27 03:48:05;;;;;;;5.82;2.80;;;13.00;99.90;;;;;;5026070;28;20060;-68
2023/09/27 03:50:31;;;;;;;2.70;2.38;;;12.90;99.90;;;;;;5022161;28;20017;-68
2023/09/27 03:52:58;;;;;;;5.45;2.92;;;13.00;99.90;;;;;;5023316;28;20040;-68
2023/09/27 03:55:24;;;;;;;4.65;2.38;;;13.00;99.90;;;;;;5031642;28;20531;-68
2023/09/27 03:57:51;;;;;;;3.42;2.45;;;13.00;99.90;;;;;;5030487;28;20821;-68
2023/09/27 04:00:18;;;;;;;2.53;2.33;;;13.00;99.90;;;;;;5034828;28;20024;-68
2023/09/27 04:02:44;;;;;;;3.97;2.80;;;12.90;99.90;;;;;;5027918;28;20033;-68
2023/09/27 04:05:11;;;;;;;2.92;2.45;;;12.90;99.90;;;;;;5026200;28;20482;-68
2023/09/27 04:07:36;;;;;;;3.05;2.50;;;12.90;99.90;;;;;;5027821;28;20117;-67
2023/09/27 04:10:03;;;;;;;3.08;2.22;;;12.90;99.90;;;;;;5033369;28;20117;-68
2023/09/27 04:12:29;;;;;;;5.75;2.60;;;12.90;99.90;;;;;;5027881;28;20033;-68
2023/09/27 04:14:55;;;;;;;5.45;2.70;;;13.00;99.90;;;;;;5024322;28;20660;-67
2023/09/27 04:17:21;;;;;;;2.72;2.42;;;13.00;99.90;;;;;;5021773;28;20025;-68
2023/09/27 04:19:54;;;;;;;3.70;2.40;;;13.00;99.90;;;;;;5025550;28;20717;-68
2023/09/27 04:22:20;;;;;;;5.10;2.47;;;12.90;99.90;;;;;;5026175;28;20037;-68
2023/09/27 04:24:45;;;;;;;5.05;2.80;;;12.90;99.90;;;;;;5018773;28;20091;-68
2023/09/27 04:27:12;;;;;;;3.72;3.08;;;12.90;99.90;;;;;;5023236;28;22063;-68
2023/09/27 04:29:38;;;;;;;3.85;3.00;;;12.90;99.90;;;;;;5027983;28;20536;-67
2023/09/27 04:32:04;;;;;;;9.10;2.90;;;12.90;99.90;;;;;;5028930;28;20030;-67
2023/09/27 04:34:29;;;;;;;5.28;2.90;;;13.00;99.90;;;;;;5031617;28;20033;-67
2023/09/27 04:36:56;;;;;;;4.03;2.55;;;12.90;99.90;;;;;;5029782;28;20085;-68
2023/09/27 04:39:21;;;;;;;3.15;2.85;;;12.90;99.90;;;;;;5025678;28;20044;-68
2023/09/27 04:41:47;;;;;;;4.05;2.92;;;12.90;99.90;;;;;;5021988;28;20033;-68
2023/09/27 04:44:16;;;;;;;5.38;2.85;;;12.90;99.90;;;;;;5019809;28;20095;-68
2023/09/27 04:46:41;;;;;;;3.65;2.70;;;12.80;99.90;;;;;;5031196;28;20064;-68
2023/09/27 04:49:07;;;;;;;4.63;2.75;;;12.70;99.90;;;;;;5024737;28;20116;-68
2023/09/27 04:51:33;;;;;;;7.03;2.90;;;12.80;99.90;;;;;;5027522;28;20395;-68
2023/09/27 04:54:02;;;;;;;6.25;3.20;;;12.70;99.90;;;;;;5031520;28;20170;-67
2023/09/27 04:56:29;;;;;;;6.00;3.30;;;12.80;99.90;;;;;;5026019;28;20056;-67
2023/09/27 04:58:55;;;;;;;3.80;2.35;;;12.90;99.90;;;;;;5023500;28;20446;-69
2023/09/27 05:01:22;;;;;;;2.40;2.10;;;12.90;99.90;;;;;;5027950;28;20110;-68
2023/09/27 05:03:47;;;;;;;2.35;2.15;;;12.80;99.90;;;;;;5027222;28;20111;-68
2023/09/27 05:06:13;;;;;;;3.85;2.35;;;12.70;99.90;;;;;;5018977;28;20694;-67
2023/09/27 05:08:39;;;;;;;4.47;2.70;;;12.60;99.90;;;;;;5026985;28;20025;-67
2023/09/27 05:11:04;;;;;;;3.78;2.10;;;12.60;99.90;;;;;;5026418;28;20494;-67
2023/09/27 05:13:30;;;;;;;4.53;2.60;;;12.70;99.90;;;;;;5030333;28;20028;-67
2023/09/27 05:15:55;;;;;;;4.38;2.88;;;12.80;99.90;;;;;;5028633;28;20207;-67
2023/09/27 05:18:24;;;;;;;4.95;2.70;;;12.90;99.90;;;;;;5031617;28;20328;-67
2023/09/27 05:20:50;;;;;;;7.93;3.50;;;12.90;99.90;;;;;;5021643;28;20033;-68
2023/09/27 05:23:16;;;;;;;7.65;3.38;;;13.00;99.90;;;;;;5026206;28;20102;-68
2023/09/27 05:25:42;;;;;;;5.93;2.72;;;13.20;99.90;;;;;;5032725;28;20036;-68
2023/09/27 05:28:07;;;;;;;5.18;3.08;;;13.30;99.90;;;;;;5019084;28;20067;-69
2023/09/27 05:30:33;;;;;;;4.97;2.90;;;13.40;99.90;;;;;;5032024;28;20041;-68
2023/09/27 05:32:59;;;;;;;8.27;4.38;;;13.50;99.90;;;;;;5017699;28;21595;-69
2023/09/27 05:35:24;;;;;;;7.22;4.40;;;13.70;99.90;;;;;;5030432;28;20832;-69
2023/09/27 05:37:50;;;;;;;8.65;3.70;;;13.80;99.90;;;;;;5026493;28;20049;-69
2023/09/27 05:40:16;;;;;;;9.23;3.92;;;13.90;99.90;;;;;;5024228;28;20025;-70
2023/09/27 05:42:42;;;;;;;6.10;4.20;;;14.00;99.90;;;;;;5028522;28;20051;-70
2023/09/27 05:45:12;;;;;;;10.50;4.28;;;14.10;99.90;;;;;;5030436;28;20630;-70
2023/09/27 05:47:39;;;;;;;12.90;4.22;;;14.10;99.90;;;;;;5025875;28;20104;-70
2023/09/27 05:50:05;;;;;;;5.03;4.10;;;14.20;99.90;;;;;;5024357;28;20387;-68
2023/09/27 05:52:33;;;;;;;8.63;4.63;;;14.30;99.90;;;;;;5020091;28;20047;-68
2023/09/27 05:54:58;;;;;;;15.63;4.47;;;14.30;99.90;;;;;;5016800;28;20770;-69
2023/09/27 05:57:24;;;;;;;10.43;5.07;;;14.40;99.90;;;;;;5023137;28;20214;-69
2023/09/27 05:59:50;;;;;;;8.80;4.38;;;14.50;99.90;;;;;;5021573;28;20028;-71
2023/09/27 06:02:20;;;;;;;7.60;4.13;;;14.70;99.90;;;;;;5024806;28;20038;-70
2023/09/27 06:04:46;;;;;;;7.78;4.40;;;14.90;99.90;;;;;;5024123;28;20126;-70
2023/09/27 06:07:13;;;;;;;11.45;5.28;;;15.10;99.90;;;;;;5024438;28;20033;-70
2023/09/27 06:09:43;;;;;;;9.32;5.20;;;15.30;99.90;;;;;;5026949;28;20068;-70
2023/09/27 06:12:12;;;;;;;6.28;4.35;;;15.50;99.90;;;;;;5022766;28;20108;-70
2023/09/27 06:14:38;;;;;;;4.97;3.88;;;15.70;99.90;;;;;;5023655;28;20029;-70
2023/09/27 06:17:05;;;;;;;6.25;4.03;;;15.90;99.90;;;;;;5026150;28;20044;-69
2023/09/27 06:19:32;;;;;;;9.05;4.32;;;16.10;99.90;;;;;;5028199;28;20045;-69
2023/09/27 06:21:58;;;;;;;6.13;4.07;;;16.40;99.90;;;;;;5022324;28;20532;-69
2023/09/27 06:24:26;;;;;;;5.00;3.90;;;16.60;99.90;;;;;;5018398;28;20037;-69
2023/09/27 06:26:54;;;;;;;7.40;5.15;;;16.80;99.90;;;;;;5028028;28;22852;-69
2023/09/27 06:29:20;;;;;;;12.20;4.90;;;17.00;99.90;;;;;;5025758;28;20033;-69
2023/09/27 06:31:49;;;;;;;5.53;4.03;;;17.10;99.90;;;;;;5020426;28;20037;-69
2023/09/27 06:34:16;;;;;;;5.85;3.97;;;17.20;99.90;;;;;;5019866;28;20037;-69
2023/09/27 06:36:42;;;;;;;10.60;4.63;;;17.30;99.90;;;;;;5027752;28;20088;-69
2023/09/27 06:39:14;;;;;;;6.45;4.55;;;17.50;99.90;;;;;;5023741;28;20052;-69
2023/09/27 06:41:40;;;;;;;;;;;17.60;99.90;;;;;;5022195;28;20098;-69
2023/09/27 06:44:07;;;;;;;5.63;3.75;;;17.70;99.90;;;;;;5025011;28;19916;-69
2023/09/27 06:46:36;;;;;;;8.10;4.47;;;17.80;99.90;;;;;;5025535;28;20021;-69
2023/09/27 06:49:03;;;;;;;10.82;4.40;;;17.90;99.90;;;;;;5026943;28;20037;-69
2023/09/27 06:51:29;;;;;;;6.78;4.10;;;18.00;99.90;;;;;;5024029;28;20116;-70
2023/09/27 06:53:55;;;;;;;7.35;4.53;;;18.20;99.90;;;;;;5017967;28;20041;-69
2023/09/27 06:56:21;;;;;;;8.27;4.35;;;18.30;99.90;;;;;;5020127;28;20125;-69
2023/09/27 06:58:48;;;;;;;6.00;4.15;;;18.40;99.90;;;;;;5020773;28;20045;-70
2023/09/27 07:01:15;;;;;;;6.50;3.80;;;18.50;99.90;;;;;;5018925;28;20025;-70
2023/09/27 07:03:41;;;;;;;5.47;3.70;;;18.60;99.90;;;;;;5022583;28;20071;-70
2023/09/27 07:06:06;;;;;;;4.97;3.80;;;18.70;99.90;;;;;;5025190;28;20120;-70
2023/09/27 07:08:33;;;;;;;5.72;3.67;;;18.90;99.90;;;;;;5025953;28;20051;-70
2023/09/27 07:11:09;;;;;;;4.70;3.72;;;19.10;99.90;;;;;;5025204;28;20040;-69
2023/09/27 07:13:37;;;;;;;7.30;3.92;;;19.30;99.90;;;;;;5020822;28;20538;-70
2023/09/27 07:16:17;;;;;;;6.63;4.00;;;19.40;99.90;;;;;;5021277;28;20031;-69
2023/09/27 07:18:43;;;;;;;6.15;3.95;;;19.60;99.90;;;;;;5008192;28;20059;-69
2023/09/27 07:21:10;;;;;;;8.10;3.90;;;19.70;99.90;;;;;;5019950;28;20473;-70
2023/09/27 07:23:35;;;;;;;7.50;4.35;;;19.80;99.90;;;;;;5020818;28;20520;-69
2023/09/27 07:26:02;;;;;;;7.00;3.72;;;20.00;99.90;;;;;;5026949;28;20025;-70
2023/09/27 07:28:27;;;;;;;6.35;3.47;;;20.10;99.90;;;;;;5019617;28;20035;-70
2023/09/27 07:30:53;;;;;;;5.43;3.28;;;20.30;99.90;;;;;;5014448;28;20025;-69
2023/09/27 07:33:20;;;;;;;7.95;3.92;;;20.40;99.90;;;;;;5017162;28;20037;-70
2023/09/27 07:35:50;;;;;;;7.25;3.85;;;20.40;99.90;;;;;;5017780;28;20143;-70
2023/09/27 07:38:16;;;;;;;6.95;3.80;;;20.50;99.90;;;;;;5018989;28;20101;-67
2023/09/27 07:40:46;;;;;;;5.95;3.67;;;20.60;99.90;;;;;;5023679;28;20502;-69
2023/09/27 07:43:12;;;;;;;7.13;3.85;;;20.80;99.90;;;;;;5021518;28;20425;-69
2023/09/27 07:45:41;;;;;;;9.02;4.90;;;20.90;99.90;;;;;;5026417;28;20037;-69
2023/09/27 07:48:08;;;;;;;6.93;3.85;;;21.00;99.90;;;;;;5027473;28;20060;-71
2023/09/27 07:50:37;;;;;;;10.90;4.00;;;21.10;99.90;;;;;;5027301;28;20127;-70
2023/09/27 07:53:03;;;;;;;11.65;3.58;;;21.20;99.90;;;;;;5025582;28;20139;-71
2023/09/27 07:55:50;;;;;;;8.25;3.40;;;21.40;99.90;;;;;;5021348;28;20121;-70
2023/09/27 07:58:17;;;;;;;9.25;4.38;;;21.50;99.90;;;;;;5028290;28;20048;-71
2023/09/27 08:00:43;;;;;;;8.30;4.00;;;21.60;99.90;;;;;;5026954;28;20021;-71
2023/09/27 08:03:27;;;;;;;8.98;3.75;;;21.70;99.90;;;;;;5025508;28;20675;-71
2023/09/27 08:05:53;;;;;;;7.40;3.75;;;21.80;99.90;;;;;;5024655;28;20036;-71
2023/09/27 08:08:18;;;;;;;6.55;3.42;;;21.90;99.90;;;;;;5025856;28;20034;-71
2023/09/27 08:10:45;;;;;;;7.05;3.85;;;22.10;99.90;;;;;;5028224;28;20034;-72
2023/09/27 08:13:15;;;;;;;6.93;3.85;;;22.20;99.90;;;;;;5029035;28;20110;-71
2023/09/27 08:15:42;;;;;;;5.28;3.45;;;22.10;99.90;;;;;;5018039;28;20131;-71
2023/09/27 08:18:08;;;;;;;5.57;3.20;;;22.20;99.90;;;;;;5024446;28;20554;-70
2023/09/27 08:20:35;;;;;;;5.75;3.60;;;22.20;99.90;;;;;;5024788;28;20263;-70
2023/09/27 08:23:01;;;;;;;6.20;4.18;;;22.20;99.90;;;;;;5027624;28;20033;-70
2023/09/27 08:25:27;;;;;;;5.50;3.63;;;22.40;99.90;;;;;;5020687;28;20244;-69
2023/09/27 08:27:53;;;;;;;7.50;3.65;;;22.40;99.90;;;;;;5020486;28;20476;-69
2023/09/27 08:30:20;;;;;;;8.15;3.85;;;22.30;99.90;;;;;;5031282;28;20027;-70
2023/09/27 08:32:46;;;;;;;7.28;3.83;;;22.10;99.90;;;;;;5023998;28;20852;-70
2023/09/27 08:35:12;;;;;;;3.92;3.58;;;22.10;99.90;;;;;;5025161;28;20035;-68
2023/09/27 08:37:38;;;;;;;7.15;3.03;;;22.20;99.90;;;;;;5021958;28;20059;-68
2023/09/27 08:40:05;;;;;;;7.15;3.70;;;22.20;99.90;;;;;;5022891;28;20107;-69
2023/09/27 08:42:33;;;;;;;7.47;3.58;;;22.30;99.90;;;;;;5022319;28;20051;-69
2023/09/27 08:45:00;;;;;;;7.22;4.05;;;22.20;99.90;;;;;;5023732;28;20793;-71
2023/09/27 08:47:27;;;;;;;7.53;3.97;;;22.30;99.90;;;;;;5024598;28;20033;-70
2023/09/27 08:49:55;;;;;;;8.60;3.60;;;22.20;99.90;;;;;;5028739;28;20024;-70
2023/09/27 08:52:22;;;;;;;8.82;3.97;;;22.30;99.90;;;;;;5027961;28;20091;-70
2023/09/27 08:54:48;;;;;;;6.45;4.15;;;22.30;99.90;;;;;;5028720;28;20036;-69
2023/09/27 08:57:15;;;;;;;5.70;3.30;;;22.40;99.90;;;;;;5030332;28;20020;-70
2023/09/27 08:59:41;;;;;;;5.90;3.88;;;22.30;99.90;;;;;;5029226;28;20147;-70
2023/09/27 09:02:07;;;;;;;8.55;3.60;;;22.50;99.90;;;;;;5023902;28;20120;-70
2023/09/27 09:04:32;;;;;;;6.90;3.88;;;22.60;99.90;;;;;;5027489;28;20037;-71
2023/09/27 09:06:59;;;;;;;4.18;3.45;;;22.60;99.90;;;;;;5027824;28;20040;-69
2023/09/27 09:09:26;;;;;;;3.92;3.53;;;22.70;99.90;;;;;;5025895;28;20105;-69
2023/09/27 09:11:58;;;;;;;10.60;4.20;;;22.80;99.90;;;;;;5022277;28;20029;-69
2023/09/27 09:14:39;;;;;;;;;;;22.90;99.90;;;;;;5028545;28;20033;-69
2023/09/27 09:17:07;;;;;;;8.82;3.70;;;22.80;99.90;;;;;;5030942;28;19916;-69
2023/09/27 09:19:37;;;;;;;9.00;4.07;;;22.80;99.90;;;;;;5028809;28;20125;-69
2023/09/27 09:22:08;;;;;;;7.60;3.42;;;22.90;99.90;;;;;;5030315;28;20025;-69
2023/09/27 09:24:41;;;;;;;7.47;3.72;;;23.00;99.90;;;;;;5026326;28;20025;-69
2023/09/27 09:27:15;;;;;;;7.78;3.58;;;23.10;99.90;;;;;;5025771;28;20614;-70
2023/09/27 09:29:46;;;;;;;10.23;3.90;;;23.20;99.90;;;;;;5029172;28;20102;-69
2023/09/27 09:32:24;;;;;;;6.90;3.30;;;23.20;99.90;;;;;;5025225;28;20037;-69
2023/09/27 09:34:54;;;;;;;4.72;3.30;;;23.30;99.90;;;;;;5025998;28;20055;-70
2023/09/27 09:37:30;;;;;;;6.63;4.18;;;23.40;99.90;;;;;;5027105;28;20128;-71
2023/09/27 09:40:14;;;;;;;7.70;3.33;;;23.40;99.90;;;;;;5024320;28;20482;-71
2023/09/27 09:42:41;;;;;;;5.93;3.80;;;23.40;99.90;;;;;;5033259;28;20037;-74
2023/09/27 09:45:10;;;;;;;11.02;3.95;;;23.60;99.90;;;;;;5028591;28;20044;-71
2023/09/27 09:47:43;;;;;;;8.98;3.92;;;23.70;99.90;;;;;;5022432;28;20037;-72
2023/09/27 09:50:16;;;;;;;9.52;3.88;;;23.60;99.90;;;;;;5028509;28;20032;-72
2023/09/27 09:52:49;;;;;;;4.57;3.50;;;23.60;99.90;;;;;;5025034;28;20028;-71
2023/09/27 09:55:19;;;;;;;4.82;3.33;;;23.80;99.90;;;;;;5027572;28;20025;-71
2023/09/27 09:57:47;;;;;;;5.32;3.42;;;23.90;99.90;;;;;;5025850;28;20029;-72
2023/09/27 10:00:30;;;;;;;5.28;3.40;;;24.10;99.90;;;;;;5044799;28;20039;-71
2023/09/27 10:03:03;;;;;;;6.72;3.30;;;24.10;99.90;;;;;;5029035;28;20064;-72
2023/09/27 10:05:36;;;;;;;6.72;3.03;;;24.00;99.90;;;;;;5027835;28;20075;-72
2023/09/27 10:08:02;;;;;;;4.13;2.83;;;24.10;99.90;;;;;;5025689;28;20025;-72
2023/09/27 10:10:28;;;;;;;5.30;3.25;;;24.20;99.90;;;;;;5028945;28;20033;-71
2023/09/27 10:12:55;;;;;;;5.78;3.42;;;24.20;99.90;;;;;;5026815;28;20041;-72
2023/09/27 10:15:22;;;;;;;6.45;3.70;;;24.30;99.90;;;;;;5028280;28;20047;-72
2023/09/27 10:17:48;;;;;;;3.22;2.92;;;24.40;99.90;;;;;;5028226;28;22332;-72
2023/09/27 10:20:18;;;;;;;6.00;3.78;;;24.50;99.90;;;;;;5025444;28;20056;-72
2023/09/27 10:22:45;;;;;;;4.47;3.20;;;24.60;99.90;;;;;;5023707;28;20022;-73
2023/09/27 10:25:31;;;;;;;4.78;2.95;;;24.60;99.90;;;;;;5026983;28;20099;-72
2023/09/27 10:28:04;;;;;;;8.88;3.17;;;24.70;99.90;;;;;;5029762;28;20037;-72
2023/09/27 10:30:42;;;;;;;4.65;2.78;;;24.70;99.90;;;;;;5030331;28;20029;-72
2023/09/27 10:33:17;;;;;;;4.97;2.92;;;24.80;99.90;;;;;;5026042;28;20033;-72
2023/09/27 10:36:07;;;;;;;7.10;3.53;;;24.90;99.90;;;;;;5028550;28;20083;-72
2023/09/27 10:38:42;;;;;;;8.50;3.88;;;25.00;99.90;;;;;;5028098;28;20060;-70
2023/09/27 10:41:28;;;;;;;8.38;3.53;;;25.10;99.90;;;;;;5029505;28;20061;-72
2023/09/27 10:43:54;;;;;;;6.28;3.15;;;25.20;99.90;;;;;;5012403;28;20548;-71
2023/09/27 10:46:20;;;;;;;5.47;3.40;;;25.30;99.90;;;;;;5023346;28;20160;-71
2023/09/27 10:48:53;;;;;;;6.20;3.55;;;25.30;99.90;;;;;;5026365;28;20250;-71
2023/09/27 10:51:20;;;;;;;5.75;2.97;;;25.30;99.90;;;;;;5022093;28;20040;-72
2023/09/27 10:53:46;;;;;;;4.97;3.58;;;25.40;99.90;;;;;;5020574;28;20129;-72
2023/09/27 10:56:12;;;;;;;7.10;3.58;;;25.40;99.90;;;;;;5020717;28;20124;-72
2023/09/27 10:58:45;;;;;;;6.75;3.22;;;25.40;99.90;;;;;;5020566;28;20709;-72
2023/09/27 11:01:11;;;;;;;6.80;3.50;;;25.40;99.90;;;;;;5021810;28;20059;-72
2023/09/27 11:03:40;;;;;;;5.97;3.35;;;25.50;99.90;;;;;;5023783;28;20029;-72
2023/09/27 11:06:14;;;;;;;6.75;3.17;;;25.60;99.90;;;;;;5023322;28;20024;-72
2023/09/27 11:08:43;;;;;;;7.80;3.42;;;25.60;99.90;;;;;;5020288;28;20035;-71
2023/09/27 11:11:12;;;;;;;7.18;3.92;;;25.60;99.90;;;;;;5022386;28;20025;-71
2023/09/27 11:13:44;;;;;;;5.07;3.42;;;25.60;99.90;;;;;;5018754;28;20083;-71
2023/09/27 11:16:14;;;;;;;11.18;3.40;;;25.70;99.90;;;;;;5020800;28;20458;-70
2023/09/27 11:18:45;;;;;;;4.72;3.40;;;25.70;99.90;;;;;;5014086;28;20048;-71
2023/09/27 11:21:11;;;;;;;7.93;3.50;;;25.70;99.90;;;;;;5015844;28;20489;-71
2023/09/27 11:23:59;;;;;;;5.75;3.30;;;25.80;99.90;;;;;;5024831;28;20029;-71
2023/09/27 11:26:32;;;;;;;6.22;3.60;;;25.80;99.90;;;;;;5023858;28;20029;-71
2023/09/27 11:29:01;;;;;;;4.95;3.30;;;25.80;99.90;;;;;;5016924;28;20589;-71
2023/09/27 11:31:32;;;;;;;4.43;3.08;;;25.90;99.90;;;;;;5015374;28;20071;-71
2023/09/27 11:34:19;;;;;;;4.75;2.55;;;26.00;99.90;;;;;;5015618;28;21086;-71
2023/09/27 11:36:55;;;;;;;5.50;2.92;;;26.10;99.90;;;;;;5018102;28;20369;-71
2023/09/27 11:39:46;;;;;;;5.20;3.00;;;26.20;99.90;;;;;;5019639;28;20037;-71
2023/09/27 11:42:11;;;;;;;9.02;2.90;;;26.40;99.90;;;;;;5019716;28;20022;-72
2023/09/27 11:44:37;;;;;;;4.32;2.90;;;26.40;99.90;;;;;;5025040;28;20604;-72
2023/09/27 11:47:08;;;;;;;3.40;2.75;;;26.50;99.90;;;;;;5020957;28;20490;-72
2023/09/27 11:49:34;;;;;;;8.57;2.95;;;26.60;99.70;;;;;;5021820;28;20096;-71
2023/09/27 11:52:10;;;;;;;4.28;2.95;;;26.70;99.50;;;;;;5027555;28;20402;-71
2023/09/27 11:54:42;;;;;;;4.93;2.80;;;26.70;99.40;;;;;;5044748;28;20512;-72
2023/09/27 11:57:09;;;;;;;4.82;2.78;;;26.80;97.90;;;;;;5024496;28;20041;-70
2023/09/27 11:59:40;;;;;;;4.65;2.95;;;26.70;98.90;;;;;;5027870;28;20177;-73
2023/09/27 12:02:07;;;;;;;7.05;2.80;;;26.70;97.20;;;;;;5025008;28;20113;-71
2023/09/27 12:04:33;;;;;;;4.50;2.80;;;26.60;97.90;;;;;;5022777;28;20037;-71
2023/09/27 12:06:58;;;;;;;6.50;2.92;;;26.60;97.60;;;;;;5021240;28;20036;-72
2023/09/27 12:09:24;;;;;;;4.22;2.85;;;26.60;97.60;;;;;;5028478;28;20032;-72
2023/09/27 12:11:49;;;;;;;4.72;2.78;;;26.60;97.80;;;;;;5029784;28;20043;-70
2023/09/27 12:14:15;;;;;;;4.78;2.90;;;26.70;97.90;;;;;;5025290;28;20028;-72
2023/09/27 12:16:41;;;;;;;4.93;2.88;;;26.70;98.10;;;;;;5034508;28;20029;-71
2023/09/27 12:19:07;;;;;;;5.68;3.00;;;26.80;97.50;;;;;;5027507;28;20466;-71
2023/09/27 12:21:35;;;;;;;7.32;3.00;;;26.90;97.30;;;;;;5029375;28;20066;-71
2023/09/27 12:24:02;;;;;;;5.03;3.03;;;26.90;97.60;;;;;;5029199;28;20083;-71
2023/09/27 12:26:29;;;;;;;6.22;2.80;;;26.90;97.40;;;;;;5031648;28;20053;-71
2023/09/27 12:28:55;;;;;;;6.20;2.40;;;26.80;97.50;;;;;;5033989;28;20386;-72
2023/09/27 12:31:21;;;;;;;9.80;3.05;;;26.80;96.70;;;;;;5031549;28;20026;-72
2023/09/27 12:33:47;;;;;;;6.95;2.70;;;26.90;97.20;;;;;;5023557;28;20052;-72
2023/09/27 12:36:13;;;;;;;4.43;2.70;;;26.90;96.30;;;;;;5022966;28;20026;-70
2023/09/27 12:38:39;;;;;;;5.85;2.80;;;27.00;97.40;;;;;;5027816;28;20433;-72
2023/09/27 12:41:07;;;;;;;3.20;2.53;;;27.00;96.00;;;;;;5030468;28;20112;-72
2023/09/27 12:43:33;;;;;;;4.93;2.97;;;27.10;96.60;;;;;;5025969;28;20025;-73
2023/09/27 12:46:01;;;;;;;7.32;2.47;;;27.10;96.60;;;;;;5031911;28;20036;-72
2023/09/27 12:48:27;;;;;;;3.83;2.35;;;27.20;96.30;;;;;;5030523;28;20029;-72
2023/09/27 12:50:52;;;;;;;10.82;3.20;;;27.20;95.70;;;;;;5029489;28;20079;-72